Time;durP1;ratioP1;P1;durP2;ratioP2;P2;SDS_P1;SDS_P2;PMS_P1;PMS_P2;Temp;Humidity;BMP_temperature;BMP_pressure;BME280_temperature;BME280_humidity;BME280_pressure;Samples;Min_cycle;Max_cycle;Signal;HPM_P1;HPM_P2
2023/12/20 00:02:05;;;;;;;20.02;9.13;;;;;;;4.43;100.00;100037.28;6038374;23;20038;-90
2023/12/20 00:04:32;;;;;;;17.58;9.10;;;;;;;4.44;100.00;100028.44;6086749;23;20461;-91
2023/12/20 00:06:59;;;;;;;13.77;7.43;;;;;;;4.45;100.00;100030.16;6061528;23;20451;-89
2023/12/20 00:09:26;;;;;;;15.90;8.30;;;;;;;4.44;100.00;100023.19;6085284;23;20399;-91
2023/12/20 00:11:53;;;;;;;17.30;8.48;;;;;;;4.44;100.00;100015.31;6084620;23;20022;-91
2023/12/20 00:14:20;;;;;;;16.58;8.45;;;;;;;4.45;100.00;100010.88;6084735;23;20030;-90
2023/12/20 00:16:47;;;;;;;15.75;7.97;;;;;;;4.48;100.00;100024.72;6061406;23;20089;-90
2023/12/20 00:19:13;;;;;;;17.33;8.55;;;;;;;4.48;100.00;100008.09;6086430;23;20046;-91
2023/12/20 00:21:40;;;;;;;15.80;7.05;;;;;;;4.49;100.00;100017.66;6039379;23;20037;-87
2023/12/20 00:24:07;;;;;;;19.63;9.00;;;;;;;4.49;100.00;100012.41;6088067;23;20018;-90
2023/12/20 00:26:34;;;;;;;20.35;10.38;;;;;;;4.51;100.00;100010.53;6063946;23;20506;-89
2023/12/20 00:29:01;;;;;;;21.08;10.07;;;;;;;4.52;100.00;100006.94;6087552;23;20018;-89
2023/12/20 00:31:28;;;;;;;21.33;9.88;;;;;;;4.50;100.00;100007.06;6063548;23;20109;-88
2023/12/20 00:33:55;;;;;;;17.75;8.10;;;;;;;4.52;100.00;99999.06;6063988;23;20747;-87
2023/12/20 00:36:22;;;;;;;16.13;8.15;;;;;;;4.53;100.00;100001.63;6111674;23;20027;-89
2023/12/20 00:38:51;;;;;;;16.63;8.10;;;;;;;4.53;100.00;99991.09;6038841;23;20022;-88
2023/12/20 00:41:18;;;;;;;20.58;9.77;;;;;;;4.53;100.00;100003.41;6111224;23;20022;-88
2023/12/20 00:43:45;;;;;;;15.63;8.40;;;;;;;4.53;100.00;99985.00;6111878;23;20030;-88
2023/12/20 00:46:11;;;;;;;19.60;9.38;;;;;;;4.54;100.00;100002.44;6110629;23;20026;-88
2023/12/20 00:48:38;;;;;;;14.60;7.63;;;;;;;4.56;100.00;99988.28;6086499;23;20022;-88
2023/12/20 00:51:06;;;;;;;17.73;8.45;;;;;;;4.55;100.00;99986.59;6086890;23;20053;-87
2023/12/20 00:53:32;;;;;;;16.95;7.45;;;;;;;4.56;100.00;99982.16;6087496;23;20014;-88
2023/12/20 00:55:59;;;;;;;16.10;8.07;;;;;;;4.55;100.00;99976.06;6063406;23;20022;-88
2023/12/20 00:58:27;;;;;;;12.23;6.57;;;;;;;4.57;100.00;99965.44;6112170;23;20022;-88
2023/12/20 01:00:54;;;;;;;16.63;7.82;;;;;;;4.58;100.00;99969.78;6063233;23;20462;-88
2023/12/20 01:03:21;;;;;;;12.93;6.47;;;;;;;4.57;100.00;99966.28;6039160;23;20661;-88
2023/12/20 01:05:48;;;;;;;11.48;5.88;;;;;;;4.61;100.00;99974.00;6087369;23;20014;-88
2023/12/20 01:08:15;;;;;;;17.00;7.43;;;;;;;4.60;100.00;99967.88;6110535;23;20049;-88
2023/12/20 01:10:42;;;;;;;11.85;6.35;;;;;;;4.59;100.00;99963.56;6062396;23;20033;-88
2023/12/20 01:13:08;;;;;;;11.70;6.15;;;;;;;4.62;100.00;99967.78;6087313;23;20033;-88
2023/12/20 01:15:35;;;;;;;12.73;6.05;;;;;;;4.63;100.00;99966.84;6063500;23;20018;-89
2023/12/20 01:18:03;;;;;;;13.00;6.28;;;;;;;4.59;100.00;99958.31;6086716;23;20037;-88
2023/12/20 01:20:29;;;;;;;13.88;6.13;;;;;;;4.63;100.00;99972.97;6039644;23;20022;-87
2023/12/20 01:22:56;;;;;;;13.77;6.18;;;;;;;4.64;100.00;99965.91;6111203;23;20030;-87
2023/12/20 01:25:23;;;;;;;10.82;5.68;;;;;;;4.64;100.00;99963.28;6063141;23;20093;-88
2023/12/20 01:27:50;;;;;;;10.93;5.57;;;;;;;4.65;100.00;99963.19;6063224;23;20022;-88
2023/12/20 01:30:17;;;;;;;12.07;6.45;;;;;;;4.66;100.00;99962.25;6037961;23;20022;-88
2023/12/20 01:32:44;;;;;;;11.02;5.13;;;;;;;4.65;100.00;99963.19;6086937;23;20113;-88
2023/12/20 01:35:12;;;;;;;9.20;5.07;;;;;;;4.66;100.00;99957.00;6111205;23;20458;-89
2023/12/20 01:37:39;;;;;;;11.35;5.50;;;;;;;4.66;100.00;99962.25;6085531;23;20022;-88
2023/12/20 01:40:06;;;;;;;16.10;6.07;;;;;;;4.69;100.00;99958.59;6110530;23;20053;-88
2023/12/20 01:42:35;;;;;;;9.75;5.13;;;;;;;4.68;100.00;99963.00;6087903;23;20022;-89
2023/12/20 01:45:02;;;;;;;11.60;6.03;;;;;;;4.69;100.00;99962.06;6086318;23;20027;-89
2023/12/20 01:47:29;;;;;;;12.18;5.63;;;;;;;4.70;100.00;99957.63;6110668;23;20018;-89
2023/12/20 01:49:56;;;;;;;11.15;5.63;;;;;;;4.70;100.00;99961.09;6110907;23;20447;-88
2023/12/20 01:52:25;;;;;;;13.10;5.70;;;;;;;4.71;100.00;99965.44;6109873;23;20030;-88
2023/12/20 01:54:54;;;;;;;15.20;6.32;;;;;;;4.72;100.00;99958.38;6111359;23;20522;-89
2023/12/20 01:57:21;;;;;;;12.13;5.72;;;;;;;4.72;100.00;99958.38;6038204;23;20506;-88
2023/12/20 01:59:48;;;;;;;10.45;5.57;;;;;;;4.71;100.00;99960.19;6039109;23;20022;-89
2023/12/20 02:02:15;;;;;;;11.35;6.03;;;;;;;4.73;100.00;99962.69;6086183;23;20097;-89
2023/12/20 02:04:43;;;;;;;9.73;4.80;;;;;;;4.73;100.00;99949.53;6062905;23;20026;-90
2023/12/20 02:07:10;;;;;;;10.80;5.30;;;;;;;4.73;100.00;99953.03;6062527;23;20026;-89
2023/12/20 02:09:38;;;;;;;10.02;5.47;;;;;;;4.74;100.00;99964.41;6062483;23;20019;-91
2023/12/20 02:12:05;;;;;;;9.55;5.13;;;;;;;4.75;100.00;99964.28;6085959;23;20026;-89
2023/12/20 02:14:32;;;;;;;9.45;5.10;;;;;;;4.75;100.00;99964.28;6086263;23;22880;-88
2023/12/20 02:16:59;;;;;;;10.02;5.20;;;;;;;4.75;100.00;99960.81;6086585;23;20045;-89
2023/12/20 02:19:26;;;;;;;7.45;4.60;;;;;;;4.77;100.00;99964.22;6062301;23;20054;-88
2023/12/20 02:22:05;;;;;;;9.27;4.57;;;;;;;4.75;100.00;99963.44;6086541;23;20324;-88
2023/12/20 02:24:32;;;;;;;10.48;4.88;;;;;;;4.78;100.00;99958.88;6073339;23;20018;-89
2023/12/20 02:26:59;;;;;;;10.35;5.00;;;;;;;4.79;100.00;99957.06;6110700;23;20026;-88
2023/12/20 02:29:27;;;;;;;8.35;4.68;;;;;;;4.79;100.00;99955.28;6085934;23;20641;-88
2023/12/20 02:31:54;;;;;;;7.80;4.28;;;;;;;4.79;100.00;99960.53;6110338;23;20026;-88
2023/12/20 02:34:20;;;;;;;7.35;4.00;;;;;;;4.81;100.00;99959.59;6037301;23;20713;-89
2023/12/20 02:36:47;;;;;;;7.32;3.63;;;;;;;4.81;100.00;99955.19;6062073;23;20458;-89
2023/12/20 02:39:14;;;;;;;8.65;4.20;;;;;;;4.80;100.00;99950.84;6038865;23;20015;-88
2023/12/20 02:41:41;;;;;;;7.03;3.78;;;;;;;4.82;100.00;99958.66;6061781;23;20454;-88
2023/12/20 02:44:08;;;;;;;6.85;3.55;;;;;;;4.83;100.00;99961.19;6086962;23;20030;-88
2023/12/20 02:46:35;;;;;;;6.47;3.78;;;;;;;4.84;100.00;99962.06;6062389;23;20026;-89
2023/12/20 02:49:02;;;;;;;5.53;3.28;;;;;;;4.84;100.00;99959.41;6110000;23;20670;-88
2023/12/20 02:51:28;;;;;;;6.35;3.30;;;;;;;4.84;100.00;99964.69;6086134;23;20038;-88
2023/12/20 02:53:55;;;;;;;5.30;3.10;;;;;;;4.85;100.00;99971.63;6038750;23;20026;-89
2023/12/20 02:56:22;;;;;;;4.90;2.70;;;;;;;4.85;100.00;99964.56;6038368;23;20026;-88
2023/12/20 02:58:49;;;;;;;8.10;3.40;;;;;;;4.86;100.00;99960.16;6086256;23;20477;-89
2023/12/20 03:01:16;;;;;;;6.78;3.40;;;;;;;4.89;100.00;99965.25;6110027;23;20324;-89
2023/12/20 03:03:42;;;;;;;4.90;2.45;;;;;;;4.87;100.00;99975.00;6086279;23;20022;-88
2023/12/20 03:06:09;;;;;;;4.60;3.35;;;;;;;4.90;100.00;99974.81;6086700;23;20484;-90
2023/12/20 03:08:36;;;;;;;4.07;2.55;;;;;;;4.89;100.00;99978.41;6061330;23;20026;-89
2023/12/20 03:11:03;;;;;;;6.03;3.15;;;;;;;4.90;100.00;99974.81;6038100;23;20089;-88
2023/12/20 03:13:30;;;;;;;5.90;2.92;;;;;;;4.88;100.00;99972.25;6085716;23;20081;-89
2023/12/20 03:15:57;;;;;;;4.90;3.47;;;;;;;4.90;100.00;99972.19;6061638;23;20050;-88
2023/12/20 03:18:24;;;;;;;6.85;3.13;;;;;;;4.89;100.00;99975.75;6085913;23;20031;-88
2023/12/20 03:20:51;;;;;;;4.45;3.00;;;;;;;4.89;100.00;99973.13;6038318;23;20022;-89
2023/12/20 03:23:18;;;;;;;7.70;3.70;;;;;;;4.90;100.00;99966.91;6061506;23;20098;-91
2023/12/20 03:25:45;;;;;;;5.05;3.13;;;;;;;4.87;100.00;99965.31;6039056;23;20037;-89
2023/12/20 03:28:14;;;;;;;4.70;2.90;;;;;;;4.88;100.00;99968.78;6037729;23;20026;-88
2023/12/20 03:30:41;;;;;;;5.53;3.78;;;;;;;4.89;100.00;99973.97;6085866;23;20350;-89
2023/12/20 03:33:08;;;;;;;5.20;3.30;;;;;;;4.89;100.00;99981.03;6061505;23;20021;-88
2023/12/20 03:35:35;;;;;;;7.90;3.60;;;;;;;4.91;100.00;99985.25;6109770;23;20077;-89
2023/12/20 03:38:02;;;;;;;5.90;3.22;;;;;;;4.94;100.00;99979.78;6084850;23;20030;-89
2023/12/20 03:40:29;;;;;;;6.28;3.55;;;;;;;4.93;100.00;99969.34;6084484;23;20131;-88
2023/12/20 03:42:56;;;;;;;6.38;3.50;;;;;;;4.93;100.00;99972.81;6085186;23;20018;-88
2023/12/20 03:45:23;;;;;;;6.80;3.85;;;;;;;4.94;100.00;99974.53;6133218;23;20458;-88
2023/12/20 03:47:54;;;;;;;4.15;2.83;;;;;;;4.96;100.00;99963.88;6109383;23;20030;-87
2023/12/20 03:50:24;;;;;;;5.68;3.00;;;;;;;4.95;100.00;99952.53;6036454;23;20042;-87
2023/12/20 03:52:51;;;;;;;6.80;3.85;;;;;;;4.96;100.00;99970.03;6109580;23;22109;-89
2023/12/20 03:55:18;;;;;;;6.03;3.42;;;;;;;4.98;100.00;99949.69;6060816;23;20443;-89
2023/12/20 03:57:45;;;;;;;4.47;2.75;;;;;;;4.97;100.00;99962.97;6085074;23;20029;-88
2023/12/20 04:00:12;;;;;;;4.32;2.88;;;;;;;4.97;100.00;99973.50;6084060;23;20034;-88
2023/12/20 04:02:40;;;;;;;5.18;3.47;;;;;;;4.98;100.00;99960.22;6085985;23;20026;-89
2023/12/20 04:05:08;;;;;;;6.82;3.72;;;;;;;4.99;100.00;99961.09;6060760;23;20734;-89
2023/12/20 04:07:37;;;;;;;6.10;3.03;;;;;;;4.97;100.00;99971.69;6084869;23;20030;-88
2023/12/20 04:10:05;;;;;;;6.63;3.88;;;;;;;4.99;100.00;99975.09;6037150;23;20041;-89
2023/12/20 04:12:32;;;;;;;5.35;3.22;;;;;;;4.97;100.00;99968.22;6032972;23;20097;-89
2023/12/20 04:14:59;;;;;;;4.88;2.72;;;;;;;4.97;100.00;99973.50;6109681;23;20046;-89
2023/12/20 04:17:26;;;;;;;5.25;3.42;;;;;;;4.98;100.00;99977.78;6037928;23;20065;-89
2023/12/20 04:19:53;;;;;;;4.50;3.00;;;;;;;4.99;100.00;99982.13;6063195;23;20053;-91
2023/12/20 04:22:20;;;;;;;6.25;3.80;;;;;;;5.00;100.00;99970.66;6085526;23;20037;-89
2023/12/20 04:24:47;;;;;;;7.32;3.63;;;;;;;5.00;100.00;99976.75;6133929;23;20113;-89
2023/12/20 04:27:13;;;;;;;6.55;4.28;;;;;;;5.00;100.00;99983.81;6060451;23;20090;-89
2023/12/20 04:29:40;;;;;;;7.90;3.55;;;;;;;5.02;100.00;99981.94;6084575;23;20023;-89
2023/12/20 04:32:07;;;;;;;5.68;3.50;;;;;;;5.01;100.00;99977.59;6084912;23;20022;-89
2023/12/20 04:34:34;;;;;;;8.10;4.43;;;;;;;5.02;100.00;99975.84;6085239;23;20026;-88
2023/12/20 04:37:01;;;;;;;5.82;3.42;;;;;;;5.03;100.00;99983.63;6060961;23;20042;-88
2023/12/20 04:39:31;;;;;;;7.80;3.70;;;;;;;5.02;100.00;99984.56;6037790;23;20033;-90
2023/12/20 04:41:58;;;;;;;6.95;4.22;;;;;;;5.03;100.00;99988.03;6085253;23;20020;-89
2023/12/20 04:44:25;;;;;;;8.18;4.50;;;;;;;5.03;100.00;99998.56;6085032;23;20467;-88
2023/12/20 04:46:51;;;;;;;8.88;4.53;;;;;;;5.04;100.00;100009.00;6109400;23;20410;-89
2023/12/20 04:49:18;;;;;;;7.60;4.40;;;;;;;5.05;100.00;100009.84;6085086;23;20089;-89
2023/12/20 04:51:45;;;;;;;7.80;4.68;;;;;;;5.04;100.00;100002.88;6085039;23;20030;-89
2023/12/20 04:54:13;;;;;;;5.35;3.58;;;;;;;5.06;100.00;100001.00;6081922;23;20018;-89
2023/12/20 04:56:40;;;;;;;5.90;3.35;;;;;;;5.08;100.00;100007.84;6036605;23;20026;-87
2023/12/20 04:59:07;;;;;;;6.60;4.13;;;;;;;5.05;100.00;100001.97;6059638;23;20089;-86
2023/12/20 05:01:33;;;;;;;6.55;4.60;;;;;;;5.05;100.00;100015.97;6107361;23;20058;-83
2023/12/20 05:04:00;;;;;;;6.30;4.35;;;;;;;5.05;100.00;100015.97;6107426;23;20698;-86
2023/12/20 05:06:27;;;;;;;8.13;4.65;;;;;;;5.08;100.00;100012.28;6060200;23;20026;-85
2023/12/20 05:08:54;;;;;;;5.10;3.33;;;;;;;5.07;100.00;100013.25;6108802;23;20029;-85
2023/12/20 05:11:21;;;;;;;8.77;4.95;;;;;;;5.09;100.00;100022.72;6084413;23;20102;-85
2023/12/20 05:13:48;;;;;;;6.70;4.10;;;;;;;5.08;100.00;100020.19;6108773;23;20113;-85
2023/12/20 05:16:17;;;;;;;8.00;4.72;;;;;;;5.08;100.00;100030.72;6047072;23;20049;-86
2023/12/20 05:18:47;;;;;;;7.30;4.13;;;;;;;5.09;100.00;100030.63;6105844;23;20029;-85
2023/12/20 05:21:14;;;;;;;6.95;4.28;;;;;;;5.07;100.00;100035.13;6084447;23;20030;-84
2023/12/20 05:23:41;;;;;;;9.77;5.10;;;;;;;5.06;100.00;100037.84;6088553;23;20056;-85
2023/12/20 05:26:08;;;;;;;7.65;4.35;;;;;;;5.08;100.00;100041.25;6061712;23;20053;-83
2023/12/20 05:28:34;;;;;;;6.60;4.00;;;;;;;5.11;100.00;100043.66;6058354;23;20022;-83
2023/12/20 05:31:02;;;;;;;9.25;4.20;;;;;;;5.07;100.00;100048.28;6058577;23;20026;-82
2023/12/20 05:33:29;;;;;;;7.63;4.57;;;;;;;5.10;100.00;100056.00;6060006;23;20085;-83
2023/12/20 05:35:56;;;;;;;8.43;5.28;;;;;;;5.11;100.00;100051.56;6107970;23;20073;-85
2023/12/20 05:38:23;;;;;;;8.32;4.55;;;;;;;5.11;100.00;100056.84;6036429;23;20090;-85
2023/12/20 05:40:50;;;;;;;5.47;3.75;;;;;;;5.14;100.00;100064.53;6036398;23;20049;-86
2023/12/20 05:43:16;;;;;;;8.07;4.93;;;;;;;5.12;100.00;100064.66;6107983;23;20477;-85
2023/12/20 05:45:43;;;;;;;7.60;4.13;;;;;;;5.14;100.00;100069.78;6037727;23;20427;-86
2023/12/20 05:48:10;;;;;;;7.68;4.38;;;;;;;5.14;100.00;100069.78;6109137;23;20081;-86
2023/12/20 05:50:37;;;;;;;7.15;3.92;;;;;;;5.16;100.00;100068.75;6035871;23;20029;-85
2023/12/20 05:53:04;;;;;;;5.90;3.85;;;;;;;5.17;100.00;100072.25;6110746;23;20030;-86
2023/12/20 05:55:31;;;;;;;6.35;4.13;;;;;;;5.17;100.00;100070.47;6063555;23;20351;-86
2023/12/20 05:57:58;;;;;;;5.25;3.75;;;;;;;5.18;100.00;100066.88;6087332;23;20467;-85
2023/12/20 06:00:25;;;;;;;8.02;4.60;;;;;;;5.16;100.00;100067.91;6081521;23;20105;-87
2023/12/20 06:02:52;;;;;;;6.18;4.25;;;;;;;5.19;100.00;100076.50;6059895;23;20026;-86
2023/12/20 06:05:18;;;;;;;6.32;4.50;;;;;;;5.20;100.00;100087.88;6108135;23;20421;-86
2023/12/20 06:07:48;;;;;;;7.43;3.97;;;;;;;5.19;100.00;100080.88;6084915;23;20046;-86
2023/12/20 06:10:15;;;;;;;7.95;4.25;;;;;;;5.20;100.00;100086.06;6059879;23;20022;-86
2023/12/20 06:12:42;;;;;;;5.85;4.25;;;;;;;5.22;100.00;100100.00;6061276;23;20054;-86
2023/12/20 06:15:09;;;;;;;6.60;4.13;;;;;;;5.23;100.00;100091.13;6133241;23;20050;-86
2023/12/20 06:17:36;;;;;;;8.30;5.18;;;;;;;5.24;100.00;100094.63;6036790;23;20026;-86
2023/12/20 06:20:07;;;;;;;7.13;4.15;;;;;;;5.22;100.00;100086.81;6083545;23;20447;-85
2023/12/20 06:22:35;;;;;;;6.30;3.85;;;;;;;5.25;100.00;100092.84;6084493;23;20030;-86
2023/12/20 06:25:02;;;;;;;8.27;4.22;;;;;;;5.25;100.00;100101.59;6083683;23;20409;-86
2023/12/20 06:27:30;;;;;;;6.85;4.38;;;;;;;5.25;100.00;100106.00;6084781;23;20395;-86
2023/12/20 06:29:57;;;;;;;10.77;4.93;;;;;;;5.24;100.00;100110.44;6059341;23;20022;-85
2023/12/20 06:32:24;;;;;;;9.02;4.53;;;;;;;5.26;100.00;100116.44;6083665;23;20332;-85
2023/12/20 06:34:51;;;;;;;8.18;4.80;;;;;;;5.27;100.00;100120.78;6109034;23;20463;-85
2023/12/20 06:37:18;;;;;;;7.90;5.00;;;;;;;5.26;100.00;100121.69;6059678;23;20026;-85
2023/12/20 06:39:45;;;;;;;6.80;4.88;;;;;;;5.28;100.00;100129.50;6083141;23;20093;-82
2023/12/20 06:42:12;;;;;;;8.63;5.40;;;;;;;5.28;100.00;100124.25;6060320;23;20446;-83
2023/12/20 06:44:39;;;;;;;8.00;4.50;;;;;;;5.27;100.00;100117.31;6083844;23;20022;-82
2023/12/20 06:47:06;;;;;;;7.93;4.97;;;;;;;5.28;100.00;100127.72;6082890;23;20250;-83
2023/12/20 06:49:33;;;;;;;11.63;4.82;;;;;;;5.28;100.00;100122.44;6107222;23;20022;-83
2023/12/20 06:52:00;;;;;;;7.15;4.32;;;;;;;5.29;100.00;100131.19;6083382;23;20029;-82
2023/12/20 06:54:27;;;;;;;9.63;5.45;;;;;;;5.31;100.00;100145.13;6082876;23;20687;-83
2023/12/20 06:56:56;;;;;;;9.88;5.18;;;;;;;5.30;100.00;100149.53;6107684;23;20466;-84
2023/12/20 06:59:23;;;;;;;8.43;4.78;;;;;;;5.30;100.00;100144.28;6059411;23;20462;-82
2023/12/20 07:01:50;;;;;;;12.68;6.28;;;;;;;5.29;100.00;100145.22;6059138;23;20101;-82
2023/12/20 07:04:20;;;;;;;9.90;5.10;;;;;;;5.31;100.00;100145.13;6108094;23;20030;-84
2023/12/20 07:06:48;;;;;;;9.90;5.20;;;;;;;5.32;100.00;100147.66;6059025;23;20128;-83
2023/12/20 07:09:15;;;;;;;11.75;5.47;;;;;;;5.30;100.00;100144.28;6107986;23;20022;-83
2023/12/20 07:11:42;;;;;;;13.60;6.53;;;;;;;5.32;100.00;100150.28;6083768;23;20077;-83
2023/12/20 07:14:08;;;;;;;10.32;5.82;;;;;;;5.32;100.00;100157.34;6036502;23;20057;-83
2023/12/20 07:16:36;;;;;;;11.93;6.38;;;;;;;5.32;100.00;100162.63;6083187;23;20026;-82
2023/12/20 07:19:03;;;;;;;13.32;6.90;;;;;;;5.30;100.00;100162.69;6058136;23;20622;-83
2023/12/20 07:21:30;;;;;;;13.15;7.45;;;;;;;5.31;100.00;100166.19;6083984;23;20026;-83
2023/12/20 07:23:56;;;;;;;10.90;6.03;;;;;;;5.33;100.00;100167.78;6108757;23;20529;-82
2023/12/20 07:26:23;;;;;;;12.15;6.55;;;;;;;5.33;100.00;100169.56;6083480;23;20050;-83
2023/12/20 07:28:50;;;;;;;13.02;7.18;;;;;;;5.32;100.00;100160.00;6083608;23;20029;-83
2023/12/20 07:31:17;;;;;;;12.43;7.43;;;;;;;5.30;100.00;100167.97;6107547;23;20030;-83
2023/12/20 07:33:44;;;;;;;16.45;7.65;;;;;;;5.29;100.00;100170.69;6036881;23;20062;-83
2023/12/20 07:36:12;;;;;;;11.93;7.07;;;;;;;5.27;100.00;100173.44;6083505;23;20022;-83
2023/12/20 07:38:38;;;;;;;15.32;7.43;;;;;;;5.28;100.00;100164.56;6082588;23;20455;-83
2023/12/20 07:41:05;;;;;;;13.07;7.20;;;;;;;5.28;100.00;100167.22;6082842;23;20030;-83
2023/12/20 07:43:32;;;;;;;16.95;8.73;;;;;;;5.26;100.00;100166.44;6108933;23;20463;-83
2023/12/20 07:46:06;;;;;;;25.02;10.82;;;;;;;5.24;100.00;100165.72;6035788;23;20018;-82
2023/12/20 07:48:37;;;;;;;20.05;9.93;;;;;;;5.23;100.00;100164.00;6131673;23;20045;-83
2023/12/20 07:51:05;;;;;;;18.13;9.30;;;;;;;5.23;100.00;100171.91;6059022;23;20019;-83
2023/12/20 07:53:32;;;;;;;15.95;9.57;;;;;;;5.22;100.00;100163.16;6107864;23;20026;-83
2023/12/20 07:55:59;;;;;;;19.35;10.00;;;;;;;5.20;100.00;100157.16;6107740;23;20026;-83
2023/12/20 07:58:26;;;;;;;20.42;11.75;;;;;;;5.20;100.00;100165.03;6059333;23;20037;-83
2023/12/20 08:01:11;;;;;;;19.23;9.18;;;;;;;5.19;100.00;100168.63;6083378;23;20031;-83
2023/12/20 08:03:38;;;;;;;16.10;9.60;;;;;;;5.20;100.00;100174.75;6083185;23;20506;-84
2023/12/20 08:06:05;;;;;;;14.80;9.35;;;;;;;5.19;100.00;100194.09;6108111;23;20018;-83
2023/12/20 08:08:32;;;;;;;13.32;7.53;;;;;;;5.20;100.00;100196.63;6083000;23;20481;-83
2023/12/20 08:11:00;;;;;;;19.35;6.97;;;;;;;5.20;100.00;100195.81;6083782;23;24621;-84
2023/12/20 08:13:27;;;;;;;14.35;7.32;;;;;;;5.21;100.00;100195.69;6036089;23;20034;-84
2023/12/20 08:15:54;;;;;;;9.73;6.00;;;;;;;5.23;100.00;100196.44;6107006;23;20029;-83
2023/12/20 08:18:20;;;;;;;12.80;6.68;;;;;;;5.25;100.00;100198.16;6058962;23;20444;-84
2023/12/20 08:20:48;;;;;;;16.52;8.60;;;;;;;5.26;100.00;100198.06;6059913;23;20025;-84
2023/12/20 08:23:15;;;;;;;16.27;8.45;;;;;;;5.28;100.00;100205.88;6082544;23;20037;-84
2023/12/20 08:25:42;;;;;;;21.15;9.95;;;;;;;5.29;100.00;100213.69;6059573;23;20032;-85
2023/12/20 08:28:09;;;;;;;18.48;10.18;;;;;;;5.28;100.00;100209.34;6083808;23;20022;-84
2023/12/20 08:30:36;;;;;;;16.15;8.57;;;;;;;5.31;100.00;100203.03;6082911;23;20081;-84
2023/12/20 08:33:03;;;;;;;14.02;7.85;;;;;;;5.32;100.00;100202.97;6106975;23;20022;-84
2023/12/20 08:35:30;;;;;;;16.52;8.07;;;;;;;5.33;100.00;100207.28;6084344;23;20497;-83
2023/12/20 08:37:56;;;;;;;14.85;7.88;;;;;;;5.36;100.00;100212.34;6107824;23;20470;-83
2023/12/20 08:40:23;;;;;;;11.88;6.85;;;;;;;5.38;100.00;100218.38;6059900;23;20080;-83
2023/12/20 08:42:50;;;;;;;12.40;6.78;;;;;;;5.38;100.00;100209.63;6061318;23;20026;-83
2023/12/20 08:45:17;;;;;;;10.93;6.53;;;;;;;5.43;100.00;100200.50;6037134;23;20097;-84
2023/12/20 08:47:44;;;;;;;14.95;7.85;;;;;;;5.45;100.00;100197.78;6061555;23;20029;-83
2023/12/20 08:50:12;;;;;;;19.13;7.72;;;;;;;5.50;100.00;100205.41;6060465;23;20022;-83
2023/12/20 08:52:39;;;;;;;13.63;6.53;;;;;;;5.53;100.00;100200.78;6109761;23;20023;-84
2023/12/20 08:55:06;;;;;;;12.82;6.25;;;;;;;5.58;100.00;100206.63;6037702;23;20030;-83
2023/12/20 08:57:33;;;;;;;12.93;6.97;;;;;;;5.61;100.00;100206.44;6085711;23;20316;-84
2023/12/20 09:00:00;;;;;;;18.17;8.68;;;;;;;5.62;100.00;100207.25;6108605;23;20027;-84
2023/12/20 09:02:27;;;;;;;14.23;6.68;;;;;;;5.65;100.00;100207.94;6061684;23;20026;-83
2023/12/20 09:04:54;;;;;;;11.30;7.22;;;;;;;5.68;100.00;100206.06;6109876;23;20465;-84
2023/12/20 09:07:24;;;;;;;14.50;7.22;;;;;;;5.67;100.00;100213.09;6083217;23;20022;-83
2023/12/20 09:09:52;;;;;;;12.60;6.28;;;;;;;5.69;100.00;100205.94;6108742;23;20026;-83
2023/12/20 09:12:20;;;;;;;13.73;6.57;;;;;;;5.69;100.00;100205.94;6060105;23;20446;-83
2023/12/20 09:14:47;;;;;;;10.38;5.72;;;;;;;5.70;100.00;100212.06;6108919;23;20022;-83
2023/12/20 09:17:16;;;;;;;9.07;5.50;;;;;;;5.70;100.00;100214.69;6084214;23;20030;-83
2023/12/20 09:19:46;;;;;;;10.57;5.13;;;;;;;5.70;100.00;100219.97;6084779;23;20085;-83
2023/12/20 09:22:13;;;;;;;10.50;5.07;;;;;;;5.70;100.00;100212.94;6036220;23;20089;-83
2023/12/20 09:24:40;;;;;;;10.30;4.82;;;;;;;5.71;100.00;100217.25;6084995;23;20029;-83
2023/12/20 09:27:07;;;;;;;10.85;4.40;;;;;;;5.71;100.00;100221.69;6036957;23;20097;-83
2023/12/20 09:29:33;;;;;;;8.70;4.43;;;;;;;5.70;100.00;100220.84;6036606;23;20056;-84
2023/12/20 09:32:00;;;;;;;11.20;4.72;;;;;;;5.70;100.00;100223.47;6084584;23;20093;-83
2023/12/20 09:34:28;;;;;;;10.25;4.40;;;;;;;5.66;100.00;100219.31;6108454;23;20022;-83
2023/12/20 09:36:55;;;;;;;7.38;3.97;;;;;;;5.64;100.00;100213.28;6109457;23;20064;-83
2023/12/20 09:39:22;;;;;;;8.30;4.18;;;;;;;5.67;100.00;100218.38;6083132;23;20026;-83
2023/12/20 09:42:01;;;;;;;15.88;4.65;;;;;;;5.65;100.00;100222.91;6036823;23;20026;-83
2023/12/20 09:44:28;;;;;;;15.40;5.65;;;;;;;5.69;100.00;100219.13;6060141;23;20101;-82
2023/12/20 09:46:55;;;;;;;9.75;5.00;;;;;;;5.70;100.00;100218.19;6084040;23;20034;-83
2023/12/20 09:49:22;;;;;;;14.60;5.45;;;;;;;5.71;100.00;100222.50;6083841;23;20034;-82
2023/12/20 09:51:54;;;;;;;8.43;4.43;;;;;;;5.71;100.00;100214.59;6060956;23;20558;-83
2023/12/20 09:54:21;;;;;;;10.38;4.50;;;;;;;5.74;100.00;100226.75;6084535;23;20343;-83
2023/12/20 09:56:48;;;;;;;6.38;3.78;;;;;;;5.72;100.00;100229.47;6083632;23;20024;-82
2023/12/20 09:59:15;;;;;;;9.43;4.25;;;;;;;5.74;100.00;100224.97;6108180;23;20053;-82
2023/12/20 10:01:43;;;;;;;8.73;4.93;;;;;;;5.76;100.00;100227.50;6084870;23;20085;-83
2023/12/20 10:04:12;;;;;;;11.02;4.00;;;;;;;5.78;100.00;100225.63;6083753;23;20034;-84
2023/12/20 10:06:56;;;;;;;13.35;5.00;;;;;;;5.78;100.00;100230.91;6083686;23;20025;-83
2023/12/20 10:09:23;;;;;;;20.00;6.72;;;;;;;5.80;100.00;100224.59;6059142;23;20810;-83
2023/12/20 10:11:54;;;;;;;12.25;4.60;;;;;;;5.79;100.00;100222.88;6036303;23;20021;-84
2023/12/20 10:14:22;;;;;;;7.15;4.47;;;;;;;5.80;100.00;100216.69;6084620;23;20078;-83
2023/12/20 10:16:49;;;;;;;12.65;4.57;;;;;;;5.80;100.00;100206.16;6083072;23;20018;-84
2023/12/20 10:19:18;;;;;;;9.25;3.70;;;;;;;5.81;100.00;100213.09;6060020;23;20098;-83
2023/12/20 10:21:45;;;;;;;6.78;3.28;;;;;;;5.82;100.00;100220.03;6035968;23;20423;-83
2023/12/20 10:24:17;;;;;;;13.38;4.00;;;;;;;5.80;100.00;100216.69;6109172;23;20029;-83
2023/12/20 10:26:44;;;;;;;9.32;3.80;;;;;;;5.81;100.00;100205.19;6108670;23;20037;-83
2023/12/20 10:29:11;;;;;;;12.45;3.67;;;;;;;5.83;100.00;100208.59;6107934;23;20023;-83
2023/12/20 10:31:42;;;;;;;7.75;3.13;;;;;;;5.85;100.00;100221.63;6084172;23;20018;-83
2023/12/20 10:34:09;;;;;;;12.25;4.18;;;;;;;5.84;100.00;100206.78;6108517;23;20030;-84
2023/12/20 10:36:36;;;;;;;9.20;3.85;;;;;;;5.84;100.00;100207.63;6107670;23;20058;-84
2023/12/20 10:39:05;;;;;;;11.05;3.78;;;;;;;5.86;100.00;100202.28;6059895;23;20022;-82
2023/12/20 10:41:33;;;;;;;5.65;2.72;;;;;;;5.88;100.00;100206.50;6084031;23;20550;-83
2023/12/20 10:44:04;;;;;;;9.80;4.05;;;;;;;5.87;100.00;100198.69;6084528;23;20026;-84
2023/12/20 10:46:34;;;;;;;10.38;3.03;;;;;;;5.88;100.00;100198.59;6083460;23;20022;-83
2023/12/20 10:49:05;;;;;;;10.07;3.47;;;;;;;5.88;100.00;100203.88;6108331;23;20351;-83
2023/12/20 10:51:33;;;;;;;10.70;3.42;;;;;;;5.90;100.00;100209.03;6084238;23;20049;-85
2023/12/20 10:54:00;;;;;;;10.43;4.82;;;;;;;5.90;100.00;100209.03;6060604;23;20030;-84
2023/12/20 10:56:32;;;;;;;9.68;3.22;;;;;;;5.90;100.00;100202.91;6083716;23;20399;-84
2023/12/20 10:59:04;;;;;;;7.63;2.70;;;;;;;5.94;100.00;100199.19;6060650;23;20077;-83
2023/12/20 11:01:31;;;;;;;8.55;2.67;;;;;;;5.93;100.00;100198.31;6060203;23;20038;-86
2023/12/20 11:03:58;;;;;;;7.13;2.72;;;;;;;5.93;100.00;100200.94;6037143;23;20026;-84
2023/12/20 11:06:54;;;;;;;10.13;3.35;;;;;;;5.92;100.00;100193.97;6083122;23;20470;-84
2023/12/20 11:09:38;;;;;;;7.47;2.92;;;;;;;5.95;100.00;100183.25;6107296;23;20492;-84
2023/12/20 11:12:32;;;;;;;6.70;2.40;;;;;;;6.01;100.00;100187.31;6106701;23;20722;-84
2023/12/20 11:15:03;;;;;;;9.45;3.03;;;;;;;6.00;100.00;100189.06;6084378;23;20030;-84
2023/12/20 11:17:31;;;;;;;8.48;2.42;;;;;;;6.02;100.00;100181.09;6060401;23;20031;-84
2023/12/20 11:19:59;;;;;;;6.68;2.67;;;;;;;6.04;100.00;100190.59;6036331;23;20070;-84
2023/12/20 11:22:29;;;;;;;4.63;2.38;;;;;;;6.04;100.00;100184.47;6082654;23;20459;-85
2023/12/20 11:25:08;;;;;;;10.48;2.95;;;;;;;6.03;100.00;100181.00;6084001;23;20749;-84
2023/12/20 11:27:36;;;;;;;8.32;2.97;;;;;;;6.07;100.00;100181.63;6084069;23;20030;-83